Time;durP1;ratioP1;P1;durP2;ratioP2;P2;SDS_P1;SDS_P2;PMS_P1;PMS_P2;Temp;Humidity;BMP_temperature;BMP_pressure;BME280_temperature;BME280_humidity;BME280_pressure;Samples;Min_cycle;Max_cycle;Signal;HPM_P1;HPM_P2
2021/11/28 00:00:45;;;;;;;23.42;16.27;;;4.60;99.90;;;;;;4995330;28;20073;-76
2021/11/28 00:03:13;;;;;;;23.00;15.20;;;4.80;99.90;;;;;;5013028;28;20042;-76
2021/11/28 00:05:39;;;;;;;24.63;15.98;;;4.60;99.90;;;;;;4998021;28;20095;-75
2021/11/28 00:10:59;;;;;;;24.83;15.57;;;4.60;99.90;;;;;;5014256;28;20532;-75
2021/11/28 00:16:00;;;;;;;23.45;16.17;;;4.50;99.90;;;;;;5034826;28;20099;-75
2021/11/28 00:18:29;;;;;;;25.88;16.17;;;4.50;99.90;;;;;;5017800;28;20029;-75
2021/11/28 00:20:55;;;;;;;21.77;15.65;;;4.50;99.90;;;;;;5017963;28;20037;-75
2021/11/28 00:23:21;;;;;;;22.70;15.93;;;4.50;99.90;;;;;;5035996;28;20033;-75
2021/11/28 00:25:47;;;;;;;22.80;16.17;;;4.90;99.90;;;;;;5035680;28;20054;-75
2021/11/28 00:28:16;;;;;;;30.80;16.33;;;4.60;99.90;;;;;;5033360;28;20037;-75
2021/11/28 00:30:41;;;;;;;26.00;16.33;;;4.60;99.90;;;;;;5035089;28;20071;-75
2021/11/28 00:33:07;;;;;;;23.48;15.40;;;4.60;99.90;;;;;;5018202;28;20079;-75
2021/11/28 00:35:33;;;;;;;25.13;17.23;;;4.60;99.90;;;;;;5034577;28;20385;-75
2021/11/28 00:37:59;;;;;;;24.40;16.50;;;4.70;99.90;;;;;;5035407;28;20029;-75
2021/11/28 00:40:25;;;;;;;25.10;15.25;;;4.60;99.90;;;;;;5001102;28;20116;-75
2021/11/28 00:42:51;;;;;;;26.95;16.48;;;4.60;99.90;;;;;;5016410;28;20382;-76
2021/11/28 00:45:16;;;;;;;21.83;16.27;;;4.60;99.90;;;;;;5032192;28;20076;-78
2021/11/28 00:47:42;;;;;;;25.75;15.95;;;4.70;99.90;;;;;;5031153;28;20399;-77
2021/11/28 00:52:35;;;;;;;25.40;16.02;;;4.60;99.90;;;;;;5035426;28;20401;-75
2021/11/28 00:55:03;;;;;;;26.38;16.20;;;4.70;99.90;;;;;;4988785;28;20505;-76
2021/11/28 00:57:31;;;;;;;24.90;16.58;;;4.60;99.90;;;;;;5018092;28;20045;-76
2021/11/28 01:00:00;;;;;;;22.70;15.68;;;4.70;99.90;;;;;;5035515;28;20116;-76
2021/11/28 01:02:26;;;;;;;24.88;15.75;;;4.70;99.90;;;;;;5035184;28;20041;-76
2021/11/28 01:04:52;;;;;;;24.13;16.50;;;4.70;99.90;;;;;;5034694;28;20037;-76
2021/11/28 01:07:18;;;;;;;22.50;16.00;;;4.60;99.90;;;;;;4984852;28;20046;-76
2021/11/28 01:09:44;;;;;;;25.10;16.77;;;5.10;99.90;;;;;;5008326;28;20041;-76
2021/11/28 01:12:10;;;;;;;23.77;17.17;;;4.60;99.90;;;;;;5045107;28;20037;-76
2021/11/28 01:14:36;;;;;;;25.85;17.25;;;4.70;99.90;;;;;;5001027;28;20036;-76
2021/11/28 01:17:02;;;;;;;28.17;17.10;;;4.70;99.90;;;;;;5033838;28;20433;-76
2021/11/28 01:19:28;;;;;;;22.42;16.52;;;4.80;99.90;;;;;;5000602;28;20073;-76
2021/11/28 01:22:02;;;;;;;26.05;16.55;;;5.50;99.90;;;;;;5016434;28;20045;-75
2021/11/28 01:24:31;;;;;;;25.45;16.58;;;4.70;99.90;;;;;;5010348;28;20131;-76
2021/11/28 01:26:58;;;;;;;28.13;18.08;;;4.70;99.90;;;;;;5014635;28;20082;-76
2021/11/28 01:29:27;;;;;;;27.58;16.73;;;5.30;99.90;;;;;;5000433;28;20053;-76
2021/11/28 01:31:53;;;;;;;26.88;16.58;;;4.70;99.90;;;;;;5016446;28;20060;-76
2021/11/28 01:34:22;;;;;;;24.73;16.98;;;4.70;99.90;;;;;;5034563;28;20080;-76
2021/11/28 01:36:47;;;;;;;25.33;16.17;;;4.70;99.90;;;;;;5033238;28;20041;-76
2021/11/28 01:39:13;;;;;;;21.75;15.98;;;5.40;99.90;;;;;;5033581;28;20099;-76
2021/11/28 01:41:39;;;;;;;25.25;17.05;;;4.70;99.90;;;;;;5016025;28;20140;-76
2021/11/28 01:44:06;;;;;;;25.05;15.70;;;4.70;99.90;;;;;;5032907;28;20044;-76
2021/11/28 01:46:32;;;;;;;24.10;16.30;;;4.70;99.90;;;;;;5033569;28;20490;-76
2021/11/28 01:48:58;;;;;;;24.15;15.82;;;5.10;99.90;;;;;;5032266;28;20098;-76
2021/11/28 01:51:24;;;;;;;23.70;16.30;;;4.70;99.90;;;;;;5032228;28;20440;-76
2021/11/28 01:53:52;;;;;;;21.92;16.13;;;4.70;99.90;;;;;;5032896;28;20429;-77
2021/11/28 01:56:18;;;;;;;23.77;14.90;;;4.70;99.90;;;;;;5033207;28;20042;-77
2021/11/28 01:58:44;;;;;;;25.58;15.23;;;4.70;99.90;;;;;;5033362;28;20395;-77
2021/11/28 02:01:15;;;;;;;24.17;16.27;;;4.70;99.90;;;;;;5031601;28;20048;-77
2021/11/28 02:03:42;;;;;;;22.25;15.88;;;4.70;99.90;;;;;;5031393;28;20112;-77
2021/11/28 02:06:12;;;;;;;23.30;15.95;;;4.70;99.90;;;;;;5000122;28;20042;-77
2021/11/28 02:08:38;;;;;;;25.27;15.73;;;4.70;99.90;;;;;;5032562;28;20077;-76
2021/11/28 02:11:05;;;;;;;22.85;15.95;;;4.70;99.90;;;;;;4999582;28;20045;-76
2021/11/28 02:13:31;;;;;;;23.48;16.25;;;4.60;99.90;;;;;;4999348;28;20389;-76
2021/11/28 02:15:59;;;;;;;24.27;16.40;;;4.60;99.90;;;;;;5032254;28;20509;-76
2021/11/28 02:18:28;;;;;;;23.35;16.30;;;4.60;99.90;;;;;;5032472;28;20045;-76
2021/11/28 02:21:00;;;;;;;24.38;16.52;;;4.60;99.90;;;;;;5031862;28;20048;-76
2021/11/28 02:23:27;;;;;;;28.50;17.10;;;5.20;99.90;;;;;;5032925;28;20045;-76
2021/11/28 02:26:00;;;;;;;23.45;17.42;;;4.60;99.90;;;;;;5032486;28;20056;-77
2021/11/28 02:28:26;;;;;;;21.50;16.33;;;4.60;99.90;;;;;;5032419;28;20045;-77
2021/11/28 02:30:52;;;;;;;22.27;16.70;;;4.60;99.90;;;;;;5031985;28;20041;-77
2021/11/28 02:33:18;;;;;;;26.30;17.75;;;4.60;99.90;;;;;;5031712;28;20048;-77
2021/11/28 02:35:44;;;;;;;29.20;18.02;;;4.60;99.90;;;;;;5032584;28;20052;-77
2021/11/28 02:38:10;;;;;;;22.85;17.27;;;4.80;99.90;;;;;;5032220;28;20060;-77
2021/11/28 02:40:37;;;;;;;23.20;17.05;;;4.60;99.90;;;;;;4983489;28;20034;-77
2021/11/28 02:43:04;;;;;;;29.13;19.83;;;4.60;99.90;;;;;;5031115;28;20063;-76
2021/11/28 02:45:31;;;;;;;24.35;17.60;;;4.60;99.90;;;;;;5015505;28;20462;-76
2021/11/28 02:47:59;;;;;;;29.33;18.52;;;4.60;99.90;;;;;;5031749;28;20053;-76
2021/11/28 02:50:28;;;;;;;26.75;18.90;;;4.50;99.90;;;;;;5030741;28;20045;-76
2021/11/28 02:52:57;;;;;;;25.20;18.30;;;4.50;99.90;;;;;;5029901;28;20085;-76
2021/11/28 02:55:38;;;;;;;24.88;18.80;;;4.50;99.90;;;;;;5015138;28;20056;-76
2021/11/28 02:58:06;;;;;;;30.02;18.95;;;4.90;99.90;;;;;;5031869;28;20045;-76
2021/11/28 03:00:36;;;;;;;29.20;19.23;;;4.80;99.90;;;;;;5031551;28;20382;-79
2021/11/28 03:03:02;;;;;;;29.35;19.35;;;4.50;99.90;;;;;;4997529;28;20048;-79
2021/11/28 03:05:28;;;;;;;27.75;20.00;;;4.40;99.90;;;;;;5031964;28;20049;-79
2021/11/28 03:07:54;;;;;;;30.98;19.90;;;4.40;99.90;;;;;;5032892;28;20085;-79
2021/11/28 03:10:36;;;;;;;29.55;19.80;;;4.40;99.90;;;;;;4998430;28;20096;-79
2021/11/28 03:13:09;;;;;;;29.60;19.52;;;4.40;99.90;;;;;;5009877;28;20046;-78
2021/11/28 03:15:35;;;;;;;29.88;19.60;;;4.30;99.90;;;;;;5018327;28;20039;-79
2021/11/28 03:18:02;;;;;;;28.55;20.17;;;4.30;99.90;;;;;;4995511;28;20124;-78
2021/11/28 03:20:30;;;;;;;31.42;19.80;;;4.30;99.90;;;;;;5014523;28;20099;-79
2021/11/28 03:22:58;;;;;;;31.58;20.45;;;4.20;99.90;;;;;;5014714;28;20045;-79
2021/11/28 03:25:25;;;;;;;29.45;20.83;;;4.20;99.90;;;;;;4997822;28;20056;-79
2021/11/28 03:27:51;;;;;;;32.08;20.23;;;4.20;99.90;;;;;;5014944;28;20045;-79
2021/11/28 03:30:22;;;;;;;27.20;19.83;;;4.20;99.90;;;;;;5032100;28;20045;-79
2021/11/28 03:32:49;;;;;;;30.00;20.08;;;4.10;99.90;;;;;;5029295;28;20037;-80
2021/11/28 03:35:15;;;;;;;31.45;20.80;;;4.10;99.90;;;;;;5031870;28;20037;-80
2021/11/28 03:37:40;;;;;;;30.48;20.83;;;4.70;99.90;;;;;;4998588;28;20037;-80
2021/11/28 03:40:11;;;;;;;27.25;19.95;;;4.00;99.90;;;;;;5032651;28;20130;-80
2021/11/28 03:42:37;;;;;;;27.27;20.17;;;4.00;99.90;;;;;;5031509;28;20049;-79
2021/11/28 03:45:07;;;;;;;31.42;20.73;;;4.20;99.90;;;;;;5012576;28;20378;-79
2021/11/28 03:47:33;;;;;;;32.53;21.80;;;3.90;99.90;;;;;;5031186;28;20060;-79
2021/11/28 03:49:59;;;;;;;31.38;19.90;;;4.10;99.90;;;;;;5013079;28;20044;-79
2021/11/28 03:52:25;;;;;;;32.70;21.92;;;3.90;99.90;;;;;;5030204;28;20057;-79
2021/11/28 03:54:51;;;;;;;33.28;21.40;;;4.10;99.90;;;;;;5030320;28;20049;-79
2021/11/28 03:57:16;;;;;;;30.77;20.35;;;3.90;99.90;;;;;;5031060;28;20049;-79
2021/11/28 03:59:45;;;;;;;29.17;20.30;;;3.90;99.90;;;;;;5032437;28;20049;-79
2021/11/28 04:02:11;;;;;;;29.73;21.75;;;4.00;99.90;;;;;;5029728;28;20048;-79
2021/11/28 04:04:37;;;;;;;32.00;20.92;;;3.70;99.90;;;;;;5029835;28;20045;-79
2021/11/28 04:07:02;;;;;;;28.98;20.40;;;3.70;99.90;;;;;;5030948;28;20041;-79
2021/11/28 04:09:28;;;;;;;27.95;19.83;;;3.70;99.90;;;;;;5031004;28;20362;-79
2021/11/28 04:11:54;;;;;;;30.27;20.25;;;3.70;99.90;;;;;;5014039;28;20470;-75
2021/11/28 04:14:20;;;;;;;32.33;21.15;;;3.70;99.90;;;;;;4998281;28;20124;-75
2021/11/28 04:16:46;;;;;;;28.52;19.77;;;3.70;99.90;;;;;;5032226;28;20478;-75
2021/11/28 04:19:12;;;;;;;29.45;20.98;;;3.70;99.90;;;;;;5030635;28;20046;-75
2021/11/28 04:21:42;;;;;;;29.98;19.85;;;3.70;99.90;;;;;;4997402;28;20064;-75
2021/11/28 04:24:08;;;;;;;30.60;20.75;;;3.70;99.90;;;;;;5012842;28;20498;-76
2021/11/28 04:26:34;;;;;;;32.85;20.73;;;3.70;99.90;;;;;;5030277;28;20029;-76
2021/11/28 04:29:00;;;;;;;31.65;21.23;;;4.10;99.90;;;;;;5014542;28;20470;-76
2021/11/28 04:31:26;;;;;;;32.10;21.05;;;3.60;99.90;;;;;;5030442;28;20088;-76
2021/11/28 04:33:52;;;;;;;31.85;20.67;;;3.70;99.90;;;;;;5032040;28;20435;-76
2021/11/28 04:36:18;;;;;;;33.90;21.58;;;3.60;99.90;;;;;;4997908;28;20041;-76
2021/11/28 04:38:44;;;;;;;34.50;21.42;;;3.60;99.90;;;;;;4997675;28;20462;-76
2021/11/28 04:41:09;;;;;;;34.03;21.80;;;3.70;99.90;;;;;;5008751;28;20044;-76
2021/11/28 04:43:35;;;;;;;32.22;21.90;;;3.70;99.90;;;;;;5013950;28;20041;-76
2021/11/28 04:46:01;;;;;;;31.75;21.73;;;3.70;99.90;;;;;;5031617;28;20121;-76
2021/11/28 04:48:26;;;;;;;32.25;21.15;;;4.10;99.90;;;;;;4997071;28;20072;-76
2021/11/28 04:50:52;;;;;;;31.33;20.90;;;3.80;99.90;;;;;;5014258;28;20394;-76
2021/11/28 04:53:18;;;;;;;41.25;22.25;;;3.70;99.90;;;;;;4996893;28;20095;-76
2021/11/28 04:55:44;;;;;;;35.67;22.98;;;3.70;99.90;;;;;;4996262;28;20034;-76
2021/11/28 04:58:09;;;;;;;60.72;24.23;;;3.70;99.90;;;;;;5013818;28;20532;-76
2021/11/28 05:00:35;;;;;;;49.10;23.00;;;3.70;99.90;;;;;;5017125;28;20050;-76
2021/11/28 05:03:01;;;;;;;59.28;23.92;;;3.70;99.90;;;;;;5035536;28;20064;-76
2021/11/28 05:05:27;;;;;;;44.95;22.75;;;3.60;99.90;;;;;;5016943;28;20045;-76
2021/11/28 05:07:54;;;;;;;41.63;23.55;;;3.60;99.90;;;;;;5016232;28;20072;-76
2021/11/28 05:10:20;;;;;;;112.78;23.85;;;3.60;99.90;;;;;;5034668;28;20073;-76
2021/11/28 05:12:49;;;;;;;162.13;23.55;;;4.20;99.90;;;;;;4998730;28;20510;-76
2021/11/28 05:15:16;;;;;;;73.00;23.10;;;4.20;99.90;;;;;;5016450;28;20033;-76
2021/11/28 05:17:42;;;;;;;174.93;24.20;;;3.60;99.90;;;;;;5033975;28;20038;-76
2021/11/28 05:20:08;;;;;;;223.82;24.30;;;3.80;99.90;;;;;;5034592;28;20052;-76
2021/11/28 05:22:34;;;;;;;155.00;23.50;;;3.50;99.90;;;;;;5001057;28;20041;-76
2021/11/28 05:24:59;;;;;;;54.33;21.65;;;3.50;99.90;;;;;;5034370;28;20112;-76
2021/11/28 05:27:25;;;;;;;195.63;25.05;;;4.60;99.90;;;;;;5016441;28;20128;-76
2021/11/28 05:29:51;;;;;;;78.95;20.67;;;3.50;99.90;;;;;;5033493;28;20193;-76
2021/11/28 05:32:17;;;;;;;103.78;21.48;;;4.10;99.90;;;;;;5033077;28;20037;-76
2021/11/28 05:34:43;;;;;;;108.03;20.02;;;3.80;99.90;;;;;;5033201;28;20044;-76
2021/11/28 05:37:09;;;;;;;79.75;19.92;;;3.50;99.90;;;;;;5034847;28;20037;-76
2021/11/28 05:39:35;;;;;;;61.55;19.75;;;3.50;99.90;;;;;;5000232;28;20037;-76
2021/11/28 05:42:01;;;;;;;69.28;19.30;;;3.50;99.90;;;;;;4999929;28;20038;-76
2021/11/28 05:44:26;;;;;;;56.28;18.33;;;3.50;99.90;;;;;;5034600;28;20037;-76
2021/11/28 05:46:52;;;;;;;38.08;17.25;;;3.50;99.90;;;;;;5031436;28;20049;-76
2021/11/28 05:49:18;;;;;;;57.60;18.08;;;3.50;99.90;;;;;;5016294;28;20041;-75
2021/11/28 05:51:44;;;;;;;30.75;18.45;;;3.50;99.90;;;;;;5008944;28;20073;-76
2021/11/28 05:54:09;;;;;;;27.10;16.77;;;3.50;99.90;;;;;;5016364;28;20421;-76
2021/11/28 05:56:35;;;;;;;26.58;17.10;;;3.50;99.90;;;;;;5016601;28;20037;-76
2021/11/28 05:59:01;;;;;;;25.60;15.85;;;3.60;99.90;;;;;;5033253;28;20038;-79
2021/11/28 06:01:28;;;;;;;26.73;15.68;;;3.50;99.90;;;;;;5000406;28;20038;-79
2021/11/28 06:03:56;;;;;;;22.55;16.55;;;3.50;99.90;;;;;;5031845;28;20073;-79
2021/11/28 06:06:24;;;;;;;24.05;15.93;;;3.50;99.90;;;;;;5033555;28;20038;-78
2021/11/28 06:08:52;;;;;;;20.88;15.00;;;3.50;99.90;;;;;;5000380;28;20099;-79
2021/11/28 06:11:17;;;;;;;20.23;15.98;;;3.70;99.90;;;;;;5032189;28;20255;-79
2021/11/28 06:13:43;;;;;;;20.80;16.20;;;3.30;99.90;;;;;;5034053;28;20120;-80
2021/11/28 06:16:09;;;;;;;20.17;15.45;;;3.30;99.90;;;;;;5016564;28;20083;-79
2021/11/28 06:18:34;;;;;;;21.33;14.55;;;3.40;99.90;;;;;;4983418;28;20804;-79
2021/11/28 06:21:03;;;;;;;18.30;14.43;;;3.20;99.90;;;;;;5032686;28;20091;-79
2021/11/28 06:23:29;;;;;;;19.27;14.63;;;3.20;99.90;;;;;;5032229;28;20124;-79
2021/11/28 06:25:58;;;;;;;19.13;14.85;;;3.20;99.90;;;;;;5031889;28;20052;-79
2021/11/28 06:28:24;;;;;;;23.60;15.02;;;3.20;99.90;;;;;;5033892;28;20045;-80
2021/11/28 06:30:50;;;;;;;19.63;14.68;;;3.20;99.90;;;;;;5032217;28;20049;-79
2021/11/28 06:33:19;;;;;;;18.77;13.95;;;3.80;99.90;;;;;;4998829;28;20041;-79
2021/11/28 06:35:45;;;;;;;21.30;14.50;;;3.50;99.90;;;;;;5033441;28;20091;-79
2021/11/28 06:38:11;;;;;;;19.15;14.38;;;3.10;99.90;;;;;;5032513;28;20041;-79
2021/11/28 06:40:36;;;;;;;18.27;13.98;;;3.10;99.90;;;;;;4999244;28;20478;-79
2021/11/28 06:43:03;;;;;;;17.90;13.25;;;3.10;99.90;;;;;;5015896;28;20037;-79
2021/11/28 06:45:29;;;;;;;17.02;13.70;;;3.10;99.90;;;;;;5032314;28;20111;-79
2021/11/28 06:47:54;;;;;;;16.88;12.45;;;3.10;99.90;;;;;;4999443;28;20037;-80
2021/11/28 06:50:20;;;;;;;18.05;13.20;;;3.30;99.90;;;;;;4999578;28;20071;-80
2021/11/28 06:52:50;;;;;;;17.48;12.32;;;3.20;99.90;;;;;;4994889;28;20383;-78
2021/11/28 06:55:16;;;;;;;15.10;11.68;;;3.20;99.90;;;;;;5015537;28;20049;-79
2021/11/28 06:57:41;;;;;;;16.77;12.25;;;3.20;99.90;;;;;;5033307;28;20065;-78
2021/11/28 07:00:08;;;;;;;20.63;12.57;;;3.50;99.90;;;;;;5015541;28;20048;-79
2021/11/28 07:02:34;;;;;;;16.70;11.60;;;3.20;99.90;;;;;;5033322;28;20042;-79
2021/11/28 07:04:59;;;;;;;17.48;13.50;;;3.20;99.90;;;;;;4999382;28;20036;-79
2021/11/28 07:07:26;;;;;;;19.08;13.60;;;3.30;99.90;;;;;;5031642;28;20107;-79
2021/11/28 07:09:53;;;;;;;19.65;14.25;;;3.30;99.90;;;;;;5031869;28;20049;-79
2021/11/28 07:12:19;;;;;;;32.50;20.42;;;3.40;99.90;;;;;;4997415;28;20037;-79
2021/11/28 07:14:45;;;;;;;33.00;22.13;;;3.60;99.90;;;;;;5031790;28;20041;-79
2021/11/28 07:17:10;;;;;;;31.88;20.65;;;3.40;99.90;;;;;;5015251;28;20107;-80
2021/11/28 07:19:40;;;;;;;26.40;18.25;;;3.50;99.90;;;;;;4967058;28;20381;-80
2021/11/28 07:22:08;;;;;;;27.70;18.30;;;3.70;99.90;;;;;;5032253;28;20112;-80
2021/11/28 07:24:34;;;;;;;24.63;16.05;;;3.50;99.90;;;;;;4998651;28;20045;-80
2021/11/28 07:26:59;;;;;;;22.88;13.80;;;3.60;99.90;;;;;;5029791;28;20403;-80
2021/11/28 07:29:25;;;;;;;15.48;10.93;;;3.70;99.90;;;;;;5032591;28;20045;-81
2021/11/28 07:31:51;;;;;;;12.45;7.50;;;3.60;99.90;;;;;;5031601;28;20045;-81
2021/11/28 07:34:25;;;;;;;9.07;6.18;;;3.60;99.90;;;;;;5031626;28;20063;-80
2021/11/28 07:36:51;;;;;;;9.05;6.35;;;3.70;99.90;;;;;;5032458;28;20056;-80
2021/11/28 07:39:17;;;;;;;7.10;5.55;;;3.70;99.90;;;;;;5032561;28;20120;-81
2021/11/28 07:41:45;;;;;;;8.15;6.15;;;3.80;99.90;;;;;;5032664;28;20102;-79
2021/11/28 07:44:11;;;;;;;8.65;6.05;;;3.90;99.90;;;;;;5026158;28;20042;-80
2021/11/28 07:46:37;;;;;;;7.00;5.00;;;4.50;99.90;;;;;;5031468;28;20036;-79
2021/11/28 07:49:03;;;;;;;9.10;5.18;;;4.00;99.90;;;;;;5032654;28;20042;-79
2021/11/28 07:51:30;;;;;;;7.65;5.20;;;4.10;99.90;;;;;;5014397;28;20033;-79
2021/11/28 07:54:01;;;;;;;8.77;5.47;;;4.90;99.90;;;;;;5031229;28;20057;-79
2021/11/28 07:56:27;;;;;;;9.02;5.32;;;4.10;99.90;;;;;;5031990;28;20052;-79
2021/11/28 07:58:53;;;;;;;8.63;5.63;;;4.70;99.90;;;;;;5031494;28;20041;-80
2021/11/28 08:01:22;;;;;;;7.30;5.18;;;4.20;99.90;;;;;;4964076;28;20140;-81
2021/11/28 08:03:47;;;;;;;9.93;6.38;;;4.20;99.90;;;;;;5031215;28;20041;-80
2021/11/28 08:06:17;;;;;;;9.15;6.15;;;4.20;99.90;;;;;;4995895;28;20056;-80
2021/11/28 08:08:43;;;;;;;9.27;5.50;;;4.20;99.90;;;;;;4999868;28;20048;-80
2021/11/28 08:11:09;;;;;;;7.65;5.78;;;4.20;99.90;;;;;;5022780;28;20041;-80
2021/11/28 08:13:35;;;;;;;10.57;6.32;;;4.20;99.90;;;;;;5028938;28;20044;-76
2021/11/28 08:16:00;;;;;;;8.80;6.32;;;4.30;99.90;;;;;;5031793;28;20061;-74
2021/11/28 08:18:26;;;;;;;9.27;6.05;;;4.30;99.90;;;;;;5013426;28;20386;-74
2021/11/28 08:20:57;;;;;;;10.20;6.65;;;5.10;99.90;;;;;;4993797;28;20029;-73
2021/11/28 08:23:25;;;;;;;13.88;6.63;;;4.30;99.90;;;;;;5016157;28;20049;-73
2021/11/28 08:25:51;;;;;;;11.00;6.13;;;4.40;99.90;;;;;;5003705;28;20072;-73
2021/11/28 08:28:17;;;;;;;8.93;6.30;;;4.40;99.90;;;;;;5031264;28;20049;-73
2021/11/28 08:30:46;;;;;;;9.77;6.57;;;4.40;99.90;;;;;;5031933;28;20059;-73
2021/11/28 08:33:11;;;;;;;16.23;7.03;;;4.40;99.90;;;;;;5013965;28;20132;-73
2021/11/28 08:35:37;;;;;;;9.85;7.20;;;5.10;99.90;;;;;;5017556;28;20476;-72
2021/11/28 08:38:04;;;;;;;10.52;6.90;;;4.90;99.90;;;;;;5034535;28;20098;-78
2021/11/28 08:40:36;;;;;;;10.52;7.07;;;4.60;99.90;;;;;;5018761;28;20469;-78
2021/11/28 08:43:02;;;;;;;9.70;7.28;;;4.50;99.90;;;;;;4985222;28;20116;-77
2021/11/28 08:45:28;;;;;;;10.55;7.35;;;4.60;99.90;;;;;;5017016;28;20129;-78
2021/11/28 08:47:56;;;;;;;10.00;6.32;;;5.00;99.90;;;;;;5016618;28;20046;-78
2021/11/28 08:50:22;;;;;;;10.25;6.95;;;5.10;99.90;;;;;;5022303;28;20037;-78
2021/11/28 08:52:48;;;;;;;10.07;6.30;;;4.70;99.90;;;;;;5016229;28;20049;-78
2021/11/28 08:55:15;;;;;;;9.80;6.15;;;4.70;99.90;;;;;;5033919;28;20103;-79
2021/11/28 08:57:41;;;;;;;9.90;5.28;;;4.70;99.90;;;;;;5031968;28;20509;-78
2021/11/28 09:00:09;;;;;;;11.07;5.22;;;4.80;99.90;;;;;;5000341;28;20493;-76
2021/11/28 09:02:38;;;;;;;7.38;4.18;;;4.80;99.90;;;;;;5032683;28;20567;-77
2021/11/28 09:05:08;;;;;;;8.00;3.72;;;4.90;99.90;;;;;;5016998;28;20041;-78
2021/11/28 09:07:34;;;;;;;8.07;3.42;;;5.90;99.90;;;;;;5033890;28;20427;-78
2021/11/28 09:10:00;;;;;;;6.15;3.20;;;4.90;99.90;;;;;;5034215;28;20123;-74
2021/11/28 09:12:26;;;;;;;6.78;3.65;;;5.00;99.90;;;;;;5014486;28;20134;-74
2021/11/28 09:14:51;;;;;;;4.70;2.80;;;5.00;99.90;;;;;;5034297;28;20099;-74
2021/11/28 09:17:18;;;;;;;4.60;3.15;;;5.00;99.90;;;;;;5001050;28;20048;-74
2021/11/28 09:22:24;;;;;;;4.97;2.83;;;5.00;99.90;;;;;;5016190;28;20049;-74
2021/11/28 09:24:50;;;;;;;7.20;3.35;;;5.10;99.90;;;;;;5011324;28;20043;-79
2021/11/28 09:27:17;;;;;;;4.35;2.67;;;5.10;99.90;;;;;;5029871;28;20120;-79
2021/11/28 09:29:45;;;;;;;4.95;3.25;;;5.10;99.90;;;;;;4998589;28;20033;-80
2021/11/28 09:32:13;;;;;;;3.83;2.03;;;5.10;99.90;;;;;;5000411;28;20037;-79
2021/11/28 09:34:39;;;;;;;2.95;1.52;;;5.20;99.90;;;;;;5033793;28;20136;-78
2021/11/28 09:37:08;;;;;;;4.95;1.35;;;5.30;99.90;;;;;;5025129;28;20033;-77
2021/11/28 09:39:34;;;;;;;2.33;1.40;;;5.20;99.90;;;;;;5034278;28;20073;-77
2021/11/28 09:42:04;;;;;;;2.08;1.13;;;5.20;99.90;;;;;;5032072;28;20080;-76
2021/11/28 09:44:34;;;;;;;4.32;1.00;;;5.10;99.90;;;;;;5030791;28;20050;-76
2021/11/28 09:47:01;;;;;;;2.97;1.20;;;5.20;99.90;;;;;;5014463;28;20068;-78
2021/11/28 09:49:29;;;;;;;3.22;1.10;;;5.20;99.90;;;;;;5000486;28;20048;-78
2021/11/28 09:51:56;;;;;;;2.33;0.80;;;5.20;99.90;;;;;;5033160;28;20148;-78
2021/11/28 09:54:28;;;;;;;2.80;1.00;;;5.20;99.90;;;;;;5016758;28;20065;-80
2021/11/28 09:56:55;;;;;;;2.97;0.93;;;5.10;99.90;;;;;;5034644;28;20052;-75
2021/11/28 09:59:28;;;;;;;1.98;0.50;;;5.00;99.90;;;;;;5014858;28;20048;-75
2021/11/28 10:01:55;;;;;;;2.10;0.85;;;5.40;99.90;;;;;;5027930;28;20030;-77
2021/11/28 10:04:21;;;;;;;5.40;1.00;;;5.20;99.90;;;;;;5033582;28;20117;-75
2021/11/28 10:06:48;;;;;;;1.20;0.77;;;5.10;99.90;;;;;;5016146;28;20085;-76
2021/11/28 10:09:14;;;;;;;2.38;0.95;;;5.30;99.90;;;;;;4999643;28;20045;-75
2021/11/28 10:11:40;;;;;;;3.30;0.90;;;5.20;99.90;;;;;;5015895;28;20042;-78
2021/11/28 10:14:10;;;;;;;1.20;0.80;;;5.10;99.90;;;;;;5030201;28;20045;-80
2021/11/28 10:16:37;;;;;;;1.90;0.70;;;5.30;99.90;;;;;;4993995;28;20034;-79
2021/11/28 10:19:09;;;;;;;2.28;0.85;;;5.20;99.90;;;;;;5015934;28;20091;-80
2021/11/28 10:21:36;;;;;;;3.05;1.10;;;5.20;99.90;;;;;;5028714;28;20048;-73
2021/11/28 10:24:11;;;;;;;4.70;1.42;;;5.50;99.90;;;;;;5034519;28;20500;-73
2021/11/28 10:26:56;;;;;;;2.90;0.77;;;5.20;99.90;;;;;;5031493;28;20112;-73
2021/11/28 10:29:28;;;;;;;2.08;0.90;;;5.10;99.90;;;;;;5024918;28;20041;-73
2021/11/28 10:31:57;;;;;;;3.30;0.77;;;5.10;99.90;;;;;;5032064;28;20044;-73
2021/11/28 10:34:36;;;;;;;2.28;0.70;;;5.00;99.90;;;;;;5032244;28;20509;-73
2021/11/28 10:37:09;;;;;;;2.72;1.05;;;5.00;99.90;;;;;;5032314;28;20427;-73
2021/11/28 10:39:55;;;;;;;2.35;1.23;;;4.90;99.90;;;;;;5030721;28;20030;-77
2021/11/28 10:42:32;;;;;;;3.47;0.80;;;4.90;99.90;;;;;;5014119;28;20124;-77
2021/11/28 10:45:10;;;;;;;4.68;1.15;;;4.90;99.90;;;;;;5019622;28;20045;-77
2021/11/28 10:47:51;;;;;;;3.22;0.88;;;4.90;99.90;;;;;;5033355;28;20478;-79
2021/11/28 10:50:50;;;;;;;4.82;0.90;;;4.90;99.90;;;;;;5022752;28;20037;-77
2021/11/28 10:53:24;;;;;;;4.60;1.00;;;4.90;99.90;;;;;;4957108;28;20060;-77
2021/11/28 10:55:58;;;;;;;2.17;0.98;;;4.90;99.90;;;;;;5032705;28;20049;-79
2021/11/28 10:58:26;;;;;;;5.07;1.45;;;4.90;99.90;;;;;;5013519;28;20049;-76
2021/11/28 11:00:51;;;;;;;4.57;1.50;;;5.40;99.90;;;;;;5031997;28;20040;-77
2021/11/28 11:03:25;;;;;;;7.10;1.60;;;5.60;99.90;;;;;;4998381;28;20128;-81
2021/11/28 11:06:24;;;;;;;3.20;1.30;;;4.90;99.90;;;;;;5033013;28;20038;-81
2021/11/28 11:09:11;;;;;;;2.63;1.13;;;5.00;99.90;;;;;;5021523;28;20436;-81
2021/11/28 11:11:37;;;;;;;5.25;1.45;;;5.00;99.90;;;;;;5014619;28;20049;-80
2021/11/28 11:14:05;;;;;;;5.55;1.73;;;5.00;99.90;;;;;;5015349;28;20363;-81
2021/11/28 11:16:30;;;;;;;7.80;2.63;;;5.80;99.90;;;;;;5031757;28;20048;-81
2021/11/28 11:19:34;;;;;;;9.68;3.00;;;5.10;99.90;;;;;;5001964;28;20478;-82
2021/11/28 11:22:29;;;;;;;6.22;1.10;;;4.90;99.90;;;;;;5031702;28;20452;-77
2021/11/28 11:25:16;;;;;;;6.07;1.03;;;5.00;99.90;;;;;;5031414;28;20520;-77
2021/11/28 11:27:46;;;;;;;4.25;0.90;;;4.90;99.90;;;;;;5003895;28;20046;-81
2021/11/28 11:30:26;;;;;;;4.43;1.02;;;4.70;99.90;;;;;;5031454;28;20038;-77
2021/11/28 11:32:55;;;;;;;4.93;0.93;;;5.00;99.90;;;;;;5032339;28;20045;-77
2021/11/28 11:35:28;;;;;;;5.03;1.30;;;4.80;99.90;;;;;;4998828;28;20048;-76
2021/11/28 11:37:59;;;;;;;4.60;0.88;;;4.80;99.90;;;;;;4998690;28;20668;-76
2021/11/28 11:40:25;;;;;;;3.40;0.73;;;4.70;99.90;;;;;;5032656;28;20045;-76
2021/11/28 11:42:52;;;;;;;4.50;0.85;;;4.70;99.90;;;;;;4980468;28;20058;-81
2021/11/28 11:45:28;;;;;;;4.68;0.80;;;4.70;99.90;;;;;;5014687;28;20485;-81
2021/11/28 11:47:56;;;;;;;6.07;0.93;;;4.70;99.90;;;;;;4998793;28;20051;-76
2021/11/28 11:50:28;;;;;;;7.07;1.10;;;4.70;99.90;;;;;;5031332;28;20128;-76
2021/11/28 11:52:57;;;;;;;8.95;1.17;;;4.80;99.90;;;;;;5014633;28;20536;-76
2021/11/28 11:55:29;;;;;;;4.22;1.30;;;4.90;99.90;;;;;;5014610;28;20060;-81
2021/11/28 11:58:26;;;;;;;3.95;0.95;;;4.90;99.90;;;;;;5012314;28;20125;-82
2021/11/28 12:01:20;;;;;;;4.07;1.00;;;5.00;99.90;;;;;;5031601;28;20145;-81
2021/11/28 12:03:53;;;;;;;4.35;0.65;;;5.00;99.90;;;;;;4970076;28;20124;-77
2021/11/28 12:06:44;;;;;;;3.70;0.88;;;4.90;99.90;;;;;;5026310;28;20068;-76
2021/11/28 12:09:29;;;;;;;3.13;1.02;;;4.80;99.90;;;;;;5033459;28;20512;-77
2021/11/28 12:11:58;;;;;;;4.93;0.95;;;4.80;99.90;;;;;;5018739;28;20030;-77
2021/11/28 12:15:06;;;;;;;7.75;1.30;;;4.70;99.90;;;;;;5033155;28;20043;-77
2021/11/28 12:17:42;;;;;;;3.38;1.00;;;4.70;99.90;;;;;;4988846;28;20041;-74
2021/11/28 12:20:08;;;;;;;4.63;1.10;;;4.20;99.90;;;;;;5017562;28;20037;-80
2021/11/28 12:22:41;;;;;;;7.15;1.10;;;4.70;99.90;;;;;;5034338;28;20084;-84
2021/11/28 12:25:49;;;;;;;4.43;0.90;;;4.80;99.90;;;;;;5034681;28;20045;-76
2021/11/28 12:28:20;;;;;;;3.83;1.00;;;4.90;99.90;;;;;;5001761;28;20045;-89
2021/11/28 12:30:58;;;;;;;4.07;0.93;;;4.90;99.90;;;;;;5000357;28;20485;-87
2021/11/28 12:33:52;;;;;;;3.15;0.68;;;5.60;99.90;;;;;;5014200;28;20506;-86
2021/11/28 12:36:33;;;;;;;4.40;0.93;;;4.80;99.90;;;;;;5017108;28;20155;-83
2021/11/28 12:39:16;;;;;;;6.43;1.13;;;5.00;99.90;;;;;;5036172;28;20112;-86
2021/11/28 12:41:52;;;;;;;2.75;0.70;;;4.70;99.90;;;;;;4981984;28;20045;-84
2021/11/28 12:44:39;;;;;;;3.33;0.60;;;4.70;99.90;;;;;;5001389;28;20095;-79
2021/11/28 12:47:08;;;;;;;5.50;0.95;;;4.80;99.90;;;;;;4998809;28;20418;-78
2021/11/28 12:49:48;;;;;;;7.18;1.38;;;4.80;99.90;;;;;;5034411;28;20037;-76
2021/11/28 12:52:16;;;;;;;3.72;1.10;;;5.50;99.90;;;;;;5001432;28;20526;-83
2021/11/28 12:54:45;;;;;;;1.48;0.85;;;5.00;99.90;;;;;;5033983;28;20057;-80
2021/11/28 12:57:20;;;;;;;3.97;1.10;;;5.00;99.90;;;;;;5001788;28;20052;-80
2021/11/28 13:00:12;;;;;;;3.67;0.85;;;5.10;99.90;;;;;;5034341;28;20108;-80
2021/11/28 13:03:08;;;;;;;5.05;1.20;;;5.10;99.90;;;;;;5016485;28;20370;-85
2021/11/28 13:05:39;;;;;;;2.57;0.90;;;5.20;99.90;;;;;;5034963;28;20081;-80